sensor_id;sensor_type;location;lat;lon;timestamp;P1;durP1;ratioP1;P2;durP2;ratioP2
79706;SDS011;69200;53.612;-2.416;2023-06-14T00:00:47;11.15;;;3.10;;
79706;SDS011;69200;53.612;-2.416;2023-06-14T00:03:13;7.10;;;2.90;;
79706;SDS011;69200;53.612;-2.416;2023-06-14T00:05:42;9.50;;;3.30;;
79706;SDS011;69200;53.612;-2.416;2023-06-14T00:08:08;6.63;;;2.67;;
79706;SDS011;69200;53.612;-2.416;2023-06-14T00:10:35;9.85;;;3.22;;
79706;SDS011;69200;53.612;-2.416;2023-06-14T00:13:01;9.35;;;3.33;;
79706;SDS011;69200;53.612;-2.416;2023-06-14T00:15:27;11.55;;;3.13;;
79706;SDS011;69200;53.612;-2.416;2023-06-14T00:17:53;9.52;;;3.08;;
79706;SDS011;69200;53.612;-2.416;2023-06-14T00:20:20;8.60;;;3.20;;
79706;SDS011;69200;53.612;-2.416;2023-06-14T00:22:45;6.85;;;3.05;;
79706;SDS011;69200;53.612;-2.416;2023-06-14T00:25:11;7.10;;;3.22;;
79706;SDS011;69200;53.612;-2.416;2023-06-14T00:27:36;8.48;;;3.22;;
79706;SDS011;69200;53.612;-2.416;2023-06-14T00:30:02;7.40;;;2.92;;
79706;SDS011;69200;53.612;-2.416;2023-06-14T00:32:27;7.20;;;2.95;;
79706;SDS011;69200;53.612;-2.416;2023-06-14T00:34:53;6.70;;;2.80;;
79706;SDS011;69200;53.612;-2.416;2023-06-14T00:37:18;7.03;;;3.17;;
79706;SDS011;69200;53.612;-2.416;2023-06-14T00:39:43;6.45;;;2.60;;
79706;SDS011;69200;53.612;-2.416;2023-06-14T00:42:09;8.52;;;2.58;;
79706;SDS011;69200;53.612;-2.416;2023-06-14T00:44:35;6.03;;;2.60;;
79706;SDS011;69200;53.612;-2.416;2023-06-14T00:47:00;5.65;;;2.50;;
79706;SDS011;69200;53.612;-2.416;2023-06-14T00:49:26;6.30;;;2.50;;
79706;SDS011;69200;53.612;-2.416;2023-06-14T00:51:53;6.28;;;2.88;;
79706;SDS011;69200;53.612;-2.416;2023-06-14T00:54:19;6.20;;;2.47;;
79706;SDS011;69200;53.612;-2.416;2023-06-14T00:56:44;8.70;;;2.83;;
79706;SDS011;69200;53.612;-2.416;2023-06-14T00:59:10;7.07;;;3.00;;
79706;SDS011;69200;53.612;-2.416;2023-06-14T01:01:36;7.10;;;2.67;;
79706;SDS011;69200;53.612;-2.416;2023-06-14T01:04:02;6.07;;;2.70;;
79706;SDS011;69200;53.612;-2.416;2023-06-14T01:06:42;5.47;;;2.75;;
79706;SDS011;69200;53.612;-2.416;2023-06-14T01:09:22;6.75;;;2.75;;
79706;SDS011;69200;53.612;-2.416;2023-06-14T01:12:18;8.73;;;2.88;;
79706;SDS011;69200;53.612;-2.416;2023-06-14T01:14:48;7.65;;;2.70;;
79706;SDS011;69200;53.612;-2.416;2023-06-14T01:17:15;6.97;;;2.85;;
79706;SDS011;69200;53.612;-2.416;2023-06-14T01:19:44;9.65;;;2.80;;
79706;SDS011;69200;53.612;-2.416;2023-06-14T01:22:10;7.82;;;2.70;;
79706;SDS011;69200;53.612;-2.416;2023-06-14T01:24:36;6.35;;;2.42;;
79706;SDS011;69200;53.612;-2.416;2023-06-14T01:27:04;6.75;;;2.40;;
79706;SDS011;69200;53.612;-2.416;2023-06-14T01:29:30;7.03;;;2.63;;
79706;SDS011;69200;53.612;-2.416;2023-06-14T01:32:01;6.50;;;2.30;;
79706;SDS011;69200;53.612;-2.416;2023-06-14T01:34:27;5.55;;;2.60;;
79706;SDS011;69200;53.612;-2.416;2023-06-14T01:36:52;6.05;;;2.70;;
79706;SDS011;69200;53.612;-2.416;2023-06-14T01:39:21;5.43;;;2.30;;
79706;SDS011;69200;53.612;-2.416;2023-06-14T01:41:48;5.70;;;2.30;;
79706;SDS011;69200;53.612;-2.416;2023-06-14T01:44:15;6.95;;;2.38;;
79706;SDS011;69200;53.612;-2.416;2023-06-14T01:46:42;6.22;;;2.13;;
79706;SDS011;69200;53.612;-2.416;2023-06-14T01:49:08;7.03;;;2.22;;
79706;SDS011;69200;53.612;-2.416;2023-06-14T01:51:34;7.82;;;2.50;;
79706;SDS011;69200;53.612;-2.416;2023-06-14T01:54:00;5.75;;;2.35;;
79706;SDS011;69200;53.612;-2.416;2023-06-14T01:56:26;5.45;;;2.28;;
79706;SDS011;69200;53.612;-2.416;2023-06-14T01:58:52;5.65;;;2.53;;
79706;SDS011;69200;53.612;-2.416;2023-06-14T02:01:18;6.93;;;2.00;;
79706;SDS011;69200;53.612;-2.416;2023-06-14T02:03:46;5.53;;;2.28;;
79706;SDS011;69200;53.612;-2.416;2023-06-14T02:06:13;5.93;;;2.10;;
79706;SDS011;69200;53.612;-2.416;2023-06-14T02:08:38;5.28;;;2.10;;
79706;SDS011;69200;53.612;-2.416;2023-06-14T02:11:04;4.95;;;2.10;;
79706;SDS011;69200;53.612;-2.416;2023-06-14T02:13:29;5.10;;;2.33;;
79706;SDS011;69200;53.612;-2.416;2023-06-14T02:15:55;6.05;;;2.22;;
79706;SDS011;69200;53.612;-2.416;2023-06-14T02:18:20;7.43;;;2.40;;
79706;SDS011;69200;53.612;-2.416;2023-06-14T02:20:46;8.65;;;1.85;;
79706;SDS011;69200;53.612;-2.416;2023-06-14T02:23:12;6.53;;;2.28;;
79706;SDS011;69200;53.612;-2.416;2023-06-14T02:25:37;8.40;;;2.08;;
79706;SDS011;69200;53.612;-2.416;2023-06-14T02:28:04;5.88;;;2.30;;
79706;SDS011;69200;53.612;-2.416;2023-06-14T02:30:30;6.53;;;2.25;;
79706;SDS011;69200;53.612;-2.416;2023-06-14T02:32:56;6.20;;;2.33;;
79706;SDS011;69200;53.612;-2.416;2023-06-14T02:35:21;6.90;;;2.30;;
79706;SDS011;69200;53.612;-2.416;2023-06-14T02:37:51;5.80;;;2.30;;
79706;SDS011;69200;53.612;-2.416;2023-06-14T02:40:17;4.93;;;1.95;;
79706;SDS011;69200;53.612;-2.416;2023-06-14T02:42:44;5.05;;;2.40;;
79706;SDS011;69200;53.612;-2.416;2023-06-14T02:45:09;6.05;;;2.10;;
79706;SDS011;69200;53.612;-2.416;2023-06-14T02:47:35;10.40;;;3.08;;
79706;SDS011;69200;53.612;-2.416;2023-06-14T02:50:00;6.40;;;2.30;;
79706;SDS011;69200;53.612;-2.416;2023-06-14T02:52:27;6.93;;;2.38;;
79706;SDS011;69200;53.612;-2.416;2023-06-14T02:54:53;7.65;;;2.40;;
79706;SDS011;69200;53.612;-2.416;2023-06-14T02:57:19;7.22;;;2.42;;
79706;SDS011;69200;53.612;-2.416;2023-06-14T02:59:45;5.18;;;2.30;;
79706;SDS011;69200;53.612;-2.416;2023-06-14T03:02:10;5.25;;;2.00;;
79706;SDS011;69200;53.612;-2.416;2023-06-14T03:04:36;5.63;;;2.40;;
79706;SDS011;69200;53.612;-2.416;2023-06-14T03:07:02;5.93;;;1.90;;
79706;SDS011;69200;53.612;-2.416;2023-06-14T03:09:34;5.18;;;1.85;;
79706;SDS011;69200;53.612;-2.416;2023-06-14T03:12:01;5.63;;;2.38;;
79706;SDS011;69200;53.612;-2.416;2023-06-14T03:14:28;5.20;;;2.25;;
79706;SDS011;69200;53.612;-2.416;2023-06-14T03:16:55;8.00;;;2.42;;
79706;SDS011;69200;53.612;-2.416;2023-06-14T03:19:22;8.48;;;2.30;;
79706;SDS011;69200;53.612;-2.416;2023-06-14T03:21:48;6.78;;;2.25;;
79706;SDS011;69200;53.612;-2.416;2023-06-14T03:24:14;5.45;;;2.25;;
79706;SDS011;69200;53.612;-2.416;2023-06-14T03:26:41;6.53;;;2.40;;
79706;SDS011;69200;53.612;-2.416;2023-06-14T03:29:07;7.45;;;2.55;;
79706;SDS011;69200;53.612;-2.416;2023-06-14T03:31:33;6.97;;;2.30;;
79706;SDS011;69200;53.612;-2.416;2023-06-14T03:34:06;7.65;;;2.20;;
79706;SDS011;69200;53.612;-2.416;2023-06-14T03:36:31;6.88;;;2.50;;
79706;SDS011;69200;53.612;-2.416;2023-06-14T03:38:58;7.32;;;2.60;;
79706;SDS011;69200;53.612;-2.416;2023-06-14T03:41:23;4.60;;;2.20;;
79706;SDS011;69200;53.612;-2.416;2023-06-14T03:43:50;6.50;;;2.20;;
79706;SDS011;69200;53.612;-2.416;2023-06-14T03:46:15;5.57;;;1.90;;
79706;SDS011;69200;53.612;-2.416;2023-06-14T03:48:40;6.78;;;2.35;;
79706;SDS011;69200;53.612;-2.416;2023-06-14T03:51:06;7.15;;;2.03;;
79706;SDS011;69200;53.612;-2.416;2023-06-14T03:53:31;5.57;;;2.17;;
79706;SDS011;69200;53.612;-2.416;2023-06-14T03:55:57;7.18;;;2.42;;
79706;SDS011;69200;53.612;-2.416;2023-06-14T03:58:22;6.03;;;2.30;;
79706;SDS011;69200;53.612;-2.416;2023-06-14T04:00:48;5.60;;;2.20;;
79706;SDS011;69200;53.612;-2.416;2023-06-14T04:03:13;5.90;;;2.33;;
79706;SDS011;69200;53.612;-2.416;2023-06-14T04:05:40;4.50;;;2.08;;
79706;SDS011;69200;53.612;-2.416;2023-06-14T04:08:07;8.00;;;2.33;;
79706;SDS011;69200;53.612;-2.416;2023-06-14T04:10:34;8.85;;;2.30;;
79706;SDS011;69200;53.612;-2.416;2023-06-14T04:13:00;7.03;;;2.25;;
79706;SDS011;69200;53.612;-2.416;2023-06-14T04:15:25;6.03;;;2.15;;
79706;SDS011;69200;53.612;-2.416;2023-06-14T04:17:53;5.13;;;2.03;;
79706;SDS011;69200;53.612;-2.416;2023-06-14T04:20:22;6.57;;;2.17;;
79706;SDS011;69200;53.612;-2.416;2023-06-14T04:22:49;6.30;;;1.88;;
79706;SDS011;69200;53.612;-2.416;2023-06-14T04:25:14;5.17;;;2.20;;
79706;SDS011;69200;53.612;-2.416;2023-06-14T04:27:40;4.88;;;1.90;;
79706;SDS011;69200;53.612;-2.416;2023-06-14T04:30:06;5.47;;;2.00;;
79706;SDS011;69200;53.612;-2.416;2023-06-14T04:32:32;4.43;;;1.70;;
79706;SDS011;69200;53.612;-2.416;2023-06-14T04:35:06;6.15;;;2.42;;
79706;SDS011;69200;53.612;-2.416;2023-06-14T04:39:59;5.93;;;1.92;;
79706;SDS011;69200;53.612;-2.416;2023-06-14T04:42:25;5.13;;;2.00;;
79706;SDS011;69200;53.612;-2.416;2023-06-14T04:44:54;4.55;;;1.98;;
79706;SDS011;69200;53.612;-2.416;2023-06-14T04:47:20;6.72;;;2.00;;
79706;SDS011;69200;53.612;-2.416;2023-06-14T04:49:46;5.05;;;1.75;;
79706;SDS011;69200;53.612;-2.416;2023-06-14T04:52:11;7.13;;;2.53;;
79706;SDS011;69200;53.612;-2.416;2023-06-14T04:54:38;5.47;;;1.75;;
79706;SDS011;69200;53.612;-2.416;2023-06-14T04:57:06;5.95;;;2.45;;
79706;SDS011;69200;53.612;-2.416;2023-06-14T04:59:31;5.47;;;1.92;;
79706;SDS011;69200;53.612;-2.416;2023-06-14T05:02:00;4.53;;;1.77;;
79706;SDS011;69200;53.612;-2.416;2023-06-14T05:04:26;4.60;;;1.67;;
79706;SDS011;69200;53.612;-2.416;2023-06-14T05:06:53;8.55;;;2.17;;
79706;SDS011;69200;53.612;-2.416;2023-06-14T05:09:21;4.50;;;1.73;;
79706;SDS011;69200;53.612;-2.416;2023-06-14T05:11:47;3.70;;;1.70;;
79706;SDS011;69200;53.612;-2.416;2023-06-14T05:14:12;5.00;;;1.98;;
79706;SDS011;69200;53.612;-2.416;2023-06-14T05:16:38;4.53;;;2.00;;
79706;SDS011;69200;53.612;-2.416;2023-06-14T05:19:04;5.85;;;2.00;;
79706;SDS011;69200;53.612;-2.416;2023-06-14T05:21:30;5.70;;;1.90;;
79706;SDS011;69200;53.612;-2.416;2023-06-14T05:23:56;7.72;;;2.05;;
79706;SDS011;69200;53.612;-2.416;2023-06-14T05:26:22;6.90;;;2.08;;
79706;SDS011;69200;53.612;-2.416;2023-06-14T05:28:54;6.45;;;2.10;;
79706;SDS011;69200;53.612;-2.416;2023-06-14T05:31:21;6.00;;;2.10;;
79706;SDS011;69200;53.612;-2.416;2023-06-14T05:33:48;4.68;;;1.80;;
79706;SDS011;69200;53.612;-2.416;2023-06-14T05:36:13;6.82;;;1.98;;
79706;SDS011;69200;53.612;-2.416;2023-06-14T05:38:38;8.47;;;2.37;;
79706;SDS011;69200;53.612;-2.416;2023-06-14T05:41:04;6.30;;;1.93;;
79706;SDS011;69200;53.612;-2.416;2023-06-14T05:43:29;4.75;;;1.92;;
79706;SDS011;69200;53.612;-2.416;2023-06-14T05:45:54;5.00;;;1.88;;
79706;SDS011;69200;53.612;-2.416;2023-06-14T05:48:20;5.22;;;1.80;;
79706;SDS011;69200;53.612;-2.416;2023-06-14T05:50:46;5.03;;;1.90;;
79706;SDS011;69200;53.612;-2.416;2023-06-14T05:53:11;5.35;;;1.70;;
79706;SDS011;69200;53.612;-2.416;2023-06-14T05:55:37;5.55;;;1.98;;
79706;SDS011;69200;53.612;-2.416;2023-06-14T05:58:02;6.22;;;2.30;;
79706;SDS011;69200;53.612;-2.416;2023-06-14T06:00:28;5.75;;;1.95;;
79706;SDS011;69200;53.612;-2.416;2023-06-14T06:02:53;4.97;;;1.80;;
79706;SDS011;69200;53.612;-2.416;2023-06-14T06:05:22;7.10;;;2.00;;
79706;SDS011;69200;53.612;-2.416;2023-06-14T06:07:47;7.00;;;1.92;;
79706;SDS011;69200;53.612;-2.416;2023-06-14T06:10:13;4.47;;;1.60;;
79706;SDS011;69200;53.612;-2.416;2023-06-14T06:12:38;5.65;;;1.85;;
79706;SDS011;69200;53.612;-2.416;2023-06-14T06:15:04;4.20;;;1.60;;
79706;SDS011;69200;53.612;-2.416;2023-06-14T06:17:30;5.95;;;1.90;;
79706;SDS011;69200;53.612;-2.416;2023-06-14T06:19:55;6.80;;;2.00;;
79706;SDS011;69200;53.612;-2.416;2023-06-14T06:22:20;5.40;;;1.90;;
79706;SDS011;69200;53.612;-2.416;2023-06-14T06:24:46;5.43;;;1.77;;
79706;SDS011;69200;53.612;-2.416;2023-06-14T06:27:12;4.75;;;1.67;;
79706;SDS011;69200;53.612;-2.416;2023-06-14T06:29:37;4.07;;;1.73;;
79706;SDS011;69200;53.612;-2.416;2023-06-14T06:32:03;4.30;;;1.75;;
79706;SDS011;69200;53.612;-2.416;2023-06-14T06:34:29;6.68;;;1.80;;
79706;SDS011;69200;53.612;-2.416;2023-06-14T06:36:54;5.85;;;1.80;;
79706;SDS011;69200;53.612;-2.416;2023-06-14T06:39:20;6.07;;;1.92;;
79706;SDS011;69200;53.612;-2.416;2023-06-14T06:41:45;4.53;;;1.60;;
79706;SDS011;69200;53.612;-2.416;2023-06-14T06:44:11;5.20;;;1.80;;
79706;SDS011;69200;53.612;-2.416;2023-06-14T06:46:37;5.15;;;1.65;;
79706;SDS011;69200;53.612;-2.416;2023-06-14T06:49:05;5.97;;;1.80;;
79706;SDS011;69200;53.612;-2.416;2023-06-14T06:51:31;6.40;;;1.60;;
79706;SDS011;69200;53.612;-2.416;2023-06-14T06:53:56;7.38;;;1.73;;
79706;SDS011;69200;53.612;-2.416;2023-06-14T06:56:22;4.95;;;1.80;;
79706;SDS011;69200;53.612;-2.416;2023-06-14T06:58:48;5.13;;;2.00;;
79706;SDS011;69200;53.612;-2.416;2023-06-14T07:01:15;4.97;;;1.80;;
79706;SDS011;69200;53.612;-2.416;2023-06-14T07:03:41;4.90;;;1.88;;
79706;SDS011;69200;53.612;-2.416;2023-06-14T07:06:06;5.65;;;1.83;;
79706;SDS011;69200;53.612;-2.416;2023-06-14T07:08:32;5.88;;;1.80;;
79706;SDS011;69200;53.612;-2.416;2023-06-14T07:10:57;4.18;;;1.75;;
79706;SDS011;69200;53.612;-2.416;2023-06-14T07:13:22;8.43;;;2.03;;
79706;SDS011;69200;53.612;-2.416;2023-06-14T07:15:48;6.47;;;1.90;;
79706;SDS011;69200;53.612;-2.416;2023-06-14T07:18:13;4.80;;;1.70;;
79706;SDS011;69200;53.612;-2.416;2023-06-14T07:20:38;6.32;;;1.85;;
79706;SDS011;69200;53.612;-2.416;2023-06-14T07:23:05;5.18;;;1.65;;
79706;SDS011;69200;53.612;-2.416;2023-06-14T07:25:30;4.93;;;1.58;;
79706;SDS011;69200;53.612;-2.416;2023-06-14T07:27:56;4.22;;;1.85;;
79706;SDS011;69200;53.612;-2.416;2023-06-14T07:30:21;7.97;;;1.70;;
79706;SDS011;69200;53.612;-2.416;2023-06-14T07:32:50;6.18;;;2.10;;
79706;SDS011;69200;53.612;-2.416;2023-06-14T07:35:17;4.30;;;1.42;;
79706;SDS011;69200;53.612;-2.416;2023-06-14T07:37:42;4.30;;;1.67;;
79706;SDS011;69200;53.612;-2.416;2023-06-14T07:40:08;6.68;;;1.98;;
79706;SDS011;69200;53.612;-2.416;2023-06-14T07:42:35;3.95;;;1.60;;
79706;SDS011;69200;53.612;-2.416;2023-06-14T07:45:01;5.20;;;1.52;;
79706;SDS011;69200;53.612;-2.416;2023-06-14T07:47:27;4.30;;;1.50;;
79706;SDS011;69200;53.612;-2.416;2023-06-14T07:49:52;7.07;;;1.77;;
79706;SDS011;69200;53.612;-2.416;2023-06-14T07:52:18;9.25;;;2.00;;
79706;SDS011;69200;53.612;-2.416;2023-06-14T07:54:43;4.93;;;1.80;;
79706;SDS011;69200;53.612;-2.416;2023-06-14T07:57:08;6.45;;;1.80;;
79706;SDS011;69200;53.612;-2.416;2023-06-14T07:59:34;7.65;;;1.73;;
79706;SDS011;69200;53.612;-2.416;2023-06-14T08:02:00;12.80;;;1.73;;
79706;SDS011;69200;53.612;-2.416;2023-06-14T08:04:25;9.18;;;1.70;;
79706;SDS011;69200;53.612;-2.416;2023-06-14T08:06:51;5.97;;;1.90;;
79706;SDS011;69200;53.612;-2.416;2023-06-14T08:09:16;5.10;;;1.90;;
79706;SDS011;69200;53.612;-2.416;2023-06-14T08:11:41;7.75;;;2.00;;
79706;SDS011;69200;53.612;-2.416;2023-06-14T08:14:07;5.90;;;2.17;;
79706;SDS011;69200;53.612;-2.416;2023-06-14T08:16:33;6.88;;;1.65;;
79706;SDS011;69200;53.612;-2.416;2023-06-14T08:18:58;4.78;;;1.80;;
79706;SDS011;69200;53.612;-2.416;2023-06-14T08:21:24;7.38;;;1.75;;
79706;SDS011;69200;53.612;-2.416;2023-06-14T08:23:54;5.65;;;1.80;;
79706;SDS011;69200;53.612;-2.416;2023-06-14T08:26:20;11.60;;;1.98;;
79706;SDS011;69200;53.612;-2.416;2023-06-14T08:28:46;5.38;;;1.88;;
79706;SDS011;69200;53.612;-2.416;2023-06-14T08:31:11;5.10;;;1.55;;
79706;SDS011;69200;53.612;-2.416;2023-06-14T08:33:37;9.65;;;1.60;;
79706;SDS011;69200;53.612;-2.416;2023-06-14T08:36:04;6.00;;;1.73;;
79706;SDS011;69200;53.612;-2.416;2023-06-14T08:38:29;6.68;;;1.52;;
79706;SDS011;69200;53.612;-2.416;2023-06-14T08:40:56;4.35;;;1.60;;
79706;SDS011;69200;53.612;-2.416;2023-06-14T08:43:23;7.47;;;2.60;;
79706;SDS011;69200;53.612;-2.416;2023-06-14T08:45:48;6.55;;;1.80;;
79706;SDS011;69200;53.612;-2.416;2023-06-14T08:48:22;5.00;;;1.92;;
79706;SDS011;69200;53.612;-2.416;2023-06-14T08:50:51;7.75;;;1.70;;
79706;SDS011;69200;53.612;-2.416;2023-06-14T08:53:19;4.68;;;1.67;;
79706;SDS011;69200;53.612;-2.416;2023-06-14T08:55:46;7.43;;;1.80;;
79706;SDS011;69200;53.612;-2.416;2023-06-14T08:58:12;6.75;;;1.75;;
79706;SDS011;69200;53.612;-2.416;2023-06-14T09:00:39;5.10;;;1.65;;
79706;SDS011;69200;53.612;-2.416;2023-06-14T09:03:06;8.65;;;2.20;;
79706;SDS011;69200;53.612;-2.416;2023-06-14T09:05:38;9.68;;;2.00;;
79706;SDS011;69200;53.612;-2.416;2023-06-14T09:08:04;5.95;;;1.95;;
79706;SDS011;69200;53.612;-2.416;2023-06-14T09:10:30;6.07;;;1.80;;
79706;SDS011;69200;53.612;-2.416;2023-06-14T09:12:58;6.78;;;1.70;;
79706;SDS011;69200;53.612;-2.416;2023-06-14T09:15:26;7.15;;;2.53;;
79706;SDS011;69200;53.612;-2.416;2023-06-14T09:17:51;7.25;;;1.95;;
79706;SDS011;69200;53.612;-2.416;2023-06-14T09:20:17;5.63;;;1.70;;
79706;SDS011;69200;53.612;-2.416;2023-06-14T09:22:45;6.18;;;1.80;;
79706;SDS011;69200;53.612;-2.416;2023-06-14T09:25:10;6.38;;;1.85;;
79706;SDS011;69200;53.612;-2.416;2023-06-14T09:27:40;6.45;;;1.88;;
79706;SDS011;69200;53.612;-2.416;2023-06-14T09:30:08;6.13;;;1.60;;
79706;SDS011;69200;53.612;-2.416;2023-06-14T09:32:37;7.10;;;2.03;;
79706;SDS011;69200;53.612;-2.416;2023-06-14T09:35:07;8.00;;;1.83;;
79706;SDS011;69200;53.612;-2.416;2023-06-14T09:37:33;6.70;;;1.73;;
79706;SDS011;69200;53.612;-2.416;2023-06-14T09:39:59;8.70;;;1.95;;
79706;SDS011;69200;53.612;-2.416;2023-06-14T09:42:25;4.68;;;1.60;;
79706;SDS011;69200;53.612;-2.416;2023-06-14T09:44:52;10.13;;;1.88;;
79706;SDS011;69200;53.612;-2.416;2023-06-14T09:47:19;5.60;;;1.67;;
79706;SDS011;69200;53.612;-2.416;2023-06-14T09:49:45;6.80;;;1.92;;
79706;SDS011;69200;53.612;-2.416;2023-06-14T09:52:14;8.05;;;1.92;;
79706;SDS011;69200;53.612;-2.416;2023-06-14T09:54:41;6.72;;;1.80;;
79706;SDS011;69200;53.612;-2.416;2023-06-14T09:57:20;8.65;;;2.33;;
79706;SDS011;69200;53.612;-2.416;2023-06-14T09:59:47;10.07;;;1.70;;
79706;SDS011;69200;53.612;-2.416;2023-06-14T10:02:28;7.28;;;2.00;;
79706;SDS011;69200;53.612;-2.416;2023-06-14T10:05:04;4.47;;;1.70;;
79706;SDS011;69200;53.612;-2.416;2023-06-14T10:10:20;4.65;;;1.58;;
79706;SDS011;69200;53.612;-2.416;2023-06-14T10:12:46;10.32;;;2.88;;
79706;SDS011;69200;53.612;-2.416;2023-06-14T10:15:15;5.43;;;1.80;;
79706;SDS011;69200;53.612;-2.416;2023-06-14T10:17:56;7.47;;;1.77;;
79706;SDS011;69200;53.612;-2.416;2023-06-14T10:23:40;7.63;;;2.35;;
79706;SDS011;69200;53.612;-2.416;2023-06-14T10:26:07;4.47;;;1.70;;
79706;SDS011;69200;53.612;-2.416;2023-06-14T10:28:34;4.10;;;1.80;;
79706;SDS011;69200;53.612;-2.416;2023-06-14T10:31:06;5.88;;;2.10;;
79706;SDS011;69200;53.612;-2.416;2023-06-14T10:36:25;5.80;;;1.95;;
79706;SDS011;69200;53.612;-2.416;2023-06-14T10:41:30;5.88;;;1.85;;
79706;SDS011;69200;53.612;-2.416;2023-06-14T10:46:39;7.35;;;1.65;;
79706;SDS011;69200;53.612;-2.416;2023-06-14T10:49:05;7.85;;;2.03;;
79706;SDS011;69200;53.612;-2.416;2023-06-14T10:51:42;4.38;;;1.70;;
79706;SDS011;69200;53.612;-2.416;2023-06-14T10:54:17;20.27;;;2.58;;
79706;SDS011;69200;53.612;-2.416;2023-06-14T10:56:49;5.47;;;1.90;;
79706;SDS011;69200;53.612;-2.416;2023-06-14T10:59:20;6.78;;;2.25;;
79706;SDS011;69200;53.612;-2.416;2023-06-14T11:04:46;4.47;;;1.77;;
79706;SDS011;69200;53.612;-2.416;2023-06-14T11:07:29;5.57;;;2.03;;
79706;SDS011;69200;53.612;-2.416;2023-06-14T11:13:05;6.10;;;2.13;;
79706;SDS011;69200;53.612;-2.416;2023-06-14T11:15:31;5.70;;;2.17;;
79706;SDS011;69200;53.612;-2.416;2023-06-14T11:18:05;5.63;;;1.90;;
79706;SDS011;69200;53.612;-2.416;2023-06-14T11:20:33;5.78;;;1.92;;
79706;SDS011;69200;53.612;-2.416;2023-06-14T11:23:00;7.13;;;2.30;;
79706;SDS011;69200;53.612;-2.416;2023-06-14T11:25:26;7.88;;;2.15;;
79706;SDS011;69200;53.612;-2.416;2023-06-14T11:27:53;7.60;;;2.20;;
79706;SDS011;69200;53.612;-2.416;2023-06-14T11:30:19;5.32;;;1.77;;
79706;SDS011;69200;53.612;-2.416;2023-06-14T11:32:48;6.88;;;2.00;;
79706;SDS011;69200;53.612;-2.416;2023-06-14T11:35:15;6.57;;;2.03;;
79706;SDS011;69200;53.612;-2.416;2023-06-14T11:37:41;7.90;;;2.10;;
79706;SDS011;69200;53.612;-2.416;2023-06-14T11:40:07;7.40;;;1.90;;
79706;SDS011;69200;53.612;-2.416;2023-06-14T11:42:35;8.20;;;2.10;;
79706;SDS011;69200;53.612;-2.416;2023-06-14T11:45:01;5.80;;;2.10;;
79706;SDS011;69200;53.612;-2.416;2023-06-14T11:47:34;4.60;;;1.70;;
79706;SDS011;69200;53.612;-2.416;2023-06-14T11:50:04;6.88;;;1.80;;
79706;SDS011;69200;53.612;-2.416;2023-06-14T11:52:31;7.93;;;2.33;;
79706;SDS011;69200;53.612;-2.416;2023-06-14T11:54:57;9.30;;;2.20;;
79706;SDS011;69200;53.612;-2.416;2023-06-14T11:57:23;7.40;;;1.98;;
79706;SDS011;69200;53.612;-2.416;2023-06-14T11:59:50;4.95;;;2.00;;
79706;SDS011;69200;53.612;-2.416;2023-06-14T12:02:16;6.13;;;2.20;;
79706;SDS011;69200;53.612;-2.416;2023-06-14T12:04:43;5.35;;;2.08;;
79706;SDS011;69200;53.612;-2.416;2023-06-14T12:07:10;7.00;;;2.00;;
79706;SDS011;69200;53.612;-2.416;2023-06-14T12:09:42;5.72;;;2.00;;
79706;SDS011;69200;53.612;-2.416;2023-06-14T12:12:28;6.60;;;2.05;;
79706;SDS011;69200;53.612;-2.416;2023-06-14T12:14:55;6.22;;;2.25;;
79706;SDS011;69200;53.612;-2.416;2023-06-14T12:17:21;4.85;;;2.15;;
79706;SDS011;69200;53.612;-2.416;2023-06-14T12:19:48;5.43;;;2.40;;
79706;SDS011;69200;53.612;-2.416;2023-06-14T12:22:14;6.25;;;2.10;;
79706;SDS011;69200;53.612;-2.416;2023-06-14T12:24:44;5.80;;;1.80;;
79706;SDS011;69200;53.612;-2.416;2023-06-14T12:27:10;5.35;;;2.30;;
79706;SDS011;69200;53.612;-2.416;2023-06-14T12:29:40;6.97;;;2.35;;
79706;SDS011;69200;53.612;-2.416;2023-06-14T12:32:10;5.38;;;1.90;;
79706;SDS011;69200;53.612;-2.416;2023-06-14T12:34:35;5.82;;;2.28;;
79706;SDS011;69200;53.612;-2.416;2023-06-14T12:37:01;5.55;;;1.90;;
79706;SDS011;69200;53.612;-2.416;2023-06-14T12:39:28;5.55;;;1.80;;
79706;SDS011;69200;53.612;-2.416;2023-06-14T12:41:55;7.32;;;1.90;;
79706;SDS011;69200;53.612;-2.416;2023-06-14T12:44:20;7.95;;;2.33;;
79706;SDS011;69200;53.612;-2.416;2023-06-14T12:46:45;5.65;;;1.90;;
79706;SDS011;69200;53.612;-2.416;2023-06-14T12:49:12;5.60;;;2.03;;
79706;SDS011;69200;53.612;-2.416;2023-06-14T12:51:38;7.13;;;1.85;;
79706;SDS011;69200;53.612;-2.416;2023-06-14T12:54:04;6.45;;;2.20;;
79706;SDS011;69200;53.612;-2.416;2023-06-14T12:56:30;4.32;;;1.83;;
79706;SDS011;69200;53.612;-2.416;2023-06-14T12:58:55;6.10;;;2.22;;
79706;SDS011;69200;53.612;-2.416;2023-06-14T13:01:21;5.72;;;2.15;;
79706;SDS011;69200;53.612;-2.416;2023-06-14T13:03:46;5.63;;;2.00;;
79706;SDS011;69200;53.612;-2.416;2023-06-14T13:06:12;5.25;;;2.05;;
79706;SDS011;69200;53.612;-2.416;2023-06-14T13:08:38;6.07;;;2.08;;
79706;SDS011;69200;53.612;-2.416;2023-06-14T13:11:03;8.95;;;2.20;;
79706;SDS011;69200;53.612;-2.416;2023-06-14T13:13:29;6.30;;;2.28;;
79706;SDS011;69200;53.612;-2.416;2023-06-14T13:15:54;4.85;;;2.17;;
79706;SDS011;69200;53.612;-2.416;2023-06-14T13:18:19;5.53;;;2.15;;
79706;SDS011;69200;53.612;-2.416;2023-06-14T13:20:45;7.93;;;2.08;;
79706;SDS011;69200;53.612;-2.416;2023-06-14T13:23:11;6.53;;;2.20;;
79706;SDS011;69200;53.612;-2.416;2023-06-14T13:25:37;5.78;;;1.98;;
79706;SDS011;69200;53.612;-2.416;2023-06-14T13:28:04;7.00;;;2.13;;
79706;SDS011;69200;53.612;-2.416;2023-06-14T13:30:30;5.05;;;2.05;;
79706;SDS011;69200;53.612;-2.416;2023-06-14T13:32:56;8.63;;;2.35;;
79706;SDS011;69200;53.612;-2.416;2023-06-14T13:35:23;7.65;;;1.77;;
79706;SDS011;69200;53.612;-2.416;2023-06-14T13:37:49;5.10;;;1.95;;
79706;SDS011;69200;53.612;-2.416;2023-06-14T13:40:15;5.00;;;1.90;;
79706;SDS011;69200;53.612;-2.416;2023-06-14T13:42:40;4.65;;;1.80;;
79706;SDS011;69200;53.612;-2.416;2023-06-14T13:45:06;5.35;;;2.00;;
79706;SDS011;69200;53.612;-2.416;2023-06-14T13:47:32;4.38;;;1.80;;
79706;SDS011;69200;53.612;-2.416;2023-06-14T13:49:57;5.40;;;1.90;;
79706;SDS011;69200;53.612;-2.416;2023-06-14T13:52:23;6.15;;;2.08;;
79706;SDS011;69200;53.612;-2.416;2023-06-14T13:54:49;5.95;;;1.92;;
79706;SDS011;69200;53.612;-2.416;2023-06-14T13:57:15;7.07;;;2.22;;
79706;SDS011;69200;53.612;-2.416;2023-06-14T13:59:41;6.45;;;2.22;;
79706;SDS011;69200;53.612;-2.416;2023-06-14T14:02:06;5.30;;;1.92;;
79706;SDS011;69200;53.612;-2.416;2023-06-14T14:04:33;5.95;;;2.22;;
79706;SDS011;69200;53.612;-2.416;2023-06-14T14:06:59;5.55;;;2.10;;
79706;SDS011;69200;53.612;-2.416;2023-06-14T14:09:25;5.43;;;2.22;;
79706;SDS011;69200;53.612;-2.416;2023-06-14T14:11:50;5.20;;;1.93;;
79706;SDS011;69200;53.612;-2.416;2023-06-14T14:14:15;5.82;;;1.85;;
79706;SDS011;69200;53.612;-2.416;2023-06-14T14:16:41;4.57;;;1.83;;
79706;SDS011;69200;53.612;-2.416;2023-06-14T14:19:06;4.15;;;1.80;;
79706;SDS011;69200;53.612;-2.416;2023-06-14T14:21:32;7.15;;;2.05;;
79706;SDS011;69200;53.612;-2.416;2023-06-14T14:23:58;3.67;;;1.50;;
79706;SDS011;69200;53.612;-2.416;2023-06-14T14:26:23;6.20;;;1.60;;
79706;SDS011;69200;53.612;-2.416;2023-06-14T14:28:50;7.53;;;2.00;;
79706;SDS011;69200;53.612;-2.416;2023-06-14T14:31:16;4.63;;;1.58;;
79706;SDS011;69200;53.612;-2.416;2023-06-14T14:33:41;7.53;;;1.52;;
79706;SDS011;69200;53.612;-2.416;2023-06-14T14:36:06;5.07;;;1.60;;
79706;SDS011;69200;53.612;-2.416;2023-06-14T14:38:32;5.32;;;2.20;;
79706;SDS011;69200;53.612;-2.416;2023-06-14T14:40:58;7.18;;;1.65;;
79706;SDS011;69200;53.612;-2.416;2023-06-14T14:43:23;6.88;;;1.77;;
79706;SDS011;69200;53.612;-2.416;2023-06-14T14:45:49;4.57;;;1.60;;
79706;SDS011;69200;53.612;-2.416;2023-06-14T14:48:14;4.90;;;1.38;;
79706;SDS011;69200;53.612;-2.416;2023-06-14T14:50:39;5.10;;;1.40;;
79706;SDS011;69200;53.612;-2.416;2023-06-14T14:53:05;3.83;;;1.45;;